Time;durP1;ratioP1;P1;durP2;ratioP2;P2;SDS_P1;SDS_P2;PMS_P1;PMS_P2;Temp;Humidity;BMP_temperature;BMP_pressure;BME280_temperature;BME280_humidity;BME280_pressure;Samples;Min_cycle;Max_cycle;Signal;HPM_P1;HPM_P2
2021/01/07 00:02:22;;;;;;;35.58;23.90;;;;;;;4.52;76.68;101488.84;1790551;78;20943;-80
2021/01/07 00:04:49;;;;;;;30.17;22.17;;;;;;;4.55;76.69;101492.20;1759402;80;21012;-79
2021/01/07 00:07:17;;;;;;;25.48;19.25;;;;;;;4.57;76.59;101489.59;1790632;78;21059;-80
2021/01/07 00:09:45;;;;;;;17.90;13.58;;;;;;;4.54;76.50;101487.06;1785568;78;21025;-80
2021/01/07 00:12:13;;;;;;;22.73;12.53;;;;;;;4.49;76.46;101488.88;1790727;78;21067;-79
2021/01/07 00:14:41;;;;;;;16.25;11.15;;;;;;;4.42;76.49;101494.64;1790477;78;20971;-79
2021/01/07 00:17:09;;;;;;;17.70;12.10;;;;;;;4.32;76.57;101496.58;1789735;77;21240;-79
2021/01/07 00:19:37;;;;;;;17.87;12.45;;;;;;;4.17;76.85;101496.88;1760683;80;21002;-81
2021/01/07 00:22:05;;;;;;;20.68;14.43;;;;;;;4.04;77.16;101502.73;1790403;79;21008;-80
2021/01/07 00:24:33;;;;;;;17.77;13.78;;;;;;;3.97;77.32;101501.59;1760691;80;21116;-81
2021/01/07 00:27:01;;;;;;;21.00;15.38;;;;;;;3.89;77.45;101495.23;1790484;79;21328;-80
2021/01/07 00:29:30;;;;;;;20.57;14.15;;;;;;;3.82;77.65;101485.41;1760737;80;22086;-80
2021/01/07 00:31:58;;;;;;;20.52;14.85;;;;;;;3.79;77.77;101488.52;1790349;79;20930;-82
2021/01/07 00:34:27;;;;;;;22.55;16.17;;;;;;;3.77;77.93;101482.05;1760707;80;20978;-80
2021/01/07 00:36:56;;;;;;;22.75;15.20;;;;;;;3.79;78.17;101480.73;1790278;79;20997;-80
2021/01/07 00:39:24;;;;;;;24.07;16.52;;;;;;;3.79;78.00;101480.73;1760651;80;21522;-80
2021/01/07 00:41:58;;;;;;;29.02;17.98;;;;;;;3.78;78.06;101474.70;1790355;79;22120;-81
2021/01/07 00:44:26;;;;;;;25.27;17.83;;;;;;;3.80;78.00;101468.16;1736021;80;21029;-81
2021/01/07 00:46:55;;;;;;;29.20;18.77;;;;;;;3.79;77.92;101464.72;1790441;79;20997;-81
2021/01/07 00:49:24;;;;;;;28.75;20.57;;;;;;;3.76;77.93;101466.50;1760674;80;21041;-82
2021/01/07 00:51:52;;;;;;;27.42;19.40;;;;;;;3.69;78.01;101460.16;1790385;77;20994;-81
2021/01/07 00:54:22;;;;;;;28.20;17.92;;;;;;;3.66;78.09;101456.75;1760470;80;21247;-82
2021/01/07 00:56:50;;;;;;;28.02;17.17;;;;;;;3.68;78.29;101461.47;1760528;80;20989;-82
2021/01/07 00:59:20;;;;;;;25.82;17.40;;;;;;;3.72;78.18;101461.38;1760642;80;20922;-81
2021/01/07 01:04:44;;;;;;;27.07;16.80;;;;;;;3.64;78.03;101454.63;1719457;82;21510;-81
2021/01/07 01:07:12;;;;;;;34.73;18.50;;;;;;;3.64;78.10;101448.14;1709087;82;21287;-84
2021/01/07 01:09:40;;;;;;;33.20;18.90;;;;;;;3.58;77.91;101446.94;1709017;82;21045;-81
2021/01/07 01:12:08;;;;;;;35.52;17.92;;;;;;;3.45;77.82;101450.21;1709021;82;21040;-82
2021/01/07 01:14:36;;;;;;;35.78;18.65;;;;;;;3.30;77.90;101444.38;1708943;82;21052;-81
2021/01/07 01:17:04;;;;;;;33.23;18.95;;;;;;;3.21;78.29;101444.98;1709008;82;21541;-81
2021/01/07 01:19:32;;;;;;;30.12;16.57;;;;;;;3.15;78.46;101437.30;1734081;82;22258;-83
2021/01/07 01:22:00;;;;;;;27.75;15.08;;;;;;;3.11;78.50;101438.66;1709094;82;20957;-82
2021/01/07 01:24:28;;;;;;;34.08;17.23;;;;;;;3.09;78.62;101438.24;1709202;82;21045;-80
2021/01/07 01:27:00;;;;;;;31.42;16.97;;;;;;;3.05;78.75;101441.34;1709043;82;21072;-81
2021/01/07 01:29:28;;;;;;;28.45;15.48;;;;;;;3.00;78.88;101435.80;1709164;82;21041;-82
2021/01/07 01:31:56;;;;;;;25.72;13.55;;;;;;;2.93;79.08;101436.33;1709300;82;21191;-78
2021/01/07 01:34:24;;;;;;;27.85;14.65;;;;;;;2.86;79.29;101430.39;1709008;82;20977;-82
2021/01/07 01:36:52;;;;;;;29.30;16.15;;;;;;;2.80;79.53;101418.84;1709048;82;20950;-82
2021/01/07 01:39:20;;;;;;;29.05;15.28;;;;;;;2.74;79.91;101423.27;1709033;82;21037;-81
2021/01/07 01:41:49;;;;;;;35.85;18.30;;;;;;;2.73;80.06;101428.01;1709007;82;20981;-81
2021/01/07 01:44:17;;;;;;;33.38;17.67;;;;;;;2.74;80.15;101428.44;1709057;82;21244;-80
2021/01/07 01:46:45;;;;;;;36.13;18.30;;;;;;;2.73;79.99;101426.72;1708973;82;21068;-79
2021/01/07 01:49:14;;;;;;;30.32;16.35;;;;;;;2.70;80.12;101420.70;1709078;82;20977;-80
2021/01/07 01:51:42;;;;;;;30.10;15.85;;;;;;;2.74;80.17;101425.41;1709091;82;21020;-78
2021/01/07 01:54:10;;;;;;;30.52;15.80;;;;;;;2.78;80.16;101428.38;1709039;82;20949;-79
2021/01/07 01:56:39;;;;;;;35.25;17.30;;;;;;;2.80;80.23;101430.92;1708976;82;22202;-80
2021/01/07 01:59:06;;;;;;;33.02;15.83;;;;;;;2.78;80.42;101426.20;1708976;82;21036;-81
2021/01/07 02:01:35;;;;;;;40.43;21.65;;;;;;;2.76;80.70;101429.25;1708995;82;20977;-82
2021/01/07 02:04:03;;;;;;;43.52;20.55;;;;;;;2.75;80.87;101419.78;1702505;83;20941;-80
2021/01/07 02:06:34;;;;;;;35.23;19.17;;;;;;;2.73;80.99;101415.91;1719884;83;20962;-80
2021/01/07 02:09:06;;;;;;;36.00;17.25;;;;;;;2.70;81.18;101405.16;1699238;83;21750;-80
2021/01/07 02:11:35;;;;;;;38.48;16.97;;;;;;;2.72;81.35;101405.15;1699276;83;21527;-79
2021/01/07 02:14:03;;;;;;;35.40;17.07;;;;;;;2.72;81.50;101415.95;1699242;83;21527;-81
2021/01/07 02:16:31;;;;;;;28.35;14.03;;;;;;;2.70;81.83;101413.37;1699191;83;20986;-80
2021/01/07 02:18:59;;;;;;;36.17;17.50;;;;;;;2.70;82.09;101403.87;1699278;83;21025;-80
2021/01/07 02:21:27;;;;;;;29.55;16.37;;;;;;;2.69;82.36;101398.70;1699028;83;21228;-80
2021/01/07 02:23:55;;;;;;;40.30;18.10;;;;;;;2.72;82.66;101399.97;1699110;83;21566;-80
2021/01/07 02:26:23;;;;;;;37.93;20.52;;;;;;;2.74;82.61;101386.56;1699327;83;20970;-81
2021/01/07 02:28:51;;;;;;;31.75;17.12;;;;;;;2.78;82.73;101388.23;1699150;83;20974;-79
2021/01/07 02:31:19;;;;;;;33.28;15.72;;;;;;;2.85;82.84;101387.25;1699280;83;20977;-81
2021/01/07 02:33:47;;;;;;;30.02;15.35;;;;;;;2.93;82.71;101387.56;1699279;83;21574;-79
2021/01/07 02:36:15;;;;;;;28.65;14.58;;;;;;;2.97;82.75;101397.84;1699089;83;20970;-80
2021/01/07 02:38:43;;;;;;;29.77;17.07;;;;;;;2.99;82.86;101398.68;1699003;83;20982;-80
2021/01/07 02:41:11;;;;;;;30.97;16.55;;;;;;;2.99;82.96;101401.27;1699271;83;21033;-79
2021/01/07 02:43:39;;;;;;;35.92;17.32;;;;;;;3.05;83.22;101393.41;1699078;83;21065;-80
2021/01/07 02:46:08;;;;;;;33.18;17.60;;;;;;;3.14;83.20;101399.33;1698946;83;21161;-79
2021/01/07 02:48:36;;;;;;;26.55;15.15;;;;;;;3.23;82.99;101398.72;1699089;83;21074;-78
2021/01/07 02:51:04;;;;;;;27.85;16.35;;;;;;;3.30;82.82;101385.22;1699112;83;21509;-80
2021/01/07 02:53:33;;;;;;;25.92;13.40;;;;;;;3.35;82.72;101382.53;1699234;83;20974;-79
2021/01/07 02:56:02;;;;;;;29.40;15.03;;;;;;;3.39;82.79;101390.68;1699190;83;20950;-79
2021/01/07 02:58:32;;;;;;;25.62;15.75;;;;;;;3.40;82.72;101391.08;1698052;83;21885;-80
2021/01/07 03:01:00;;;;;;;27.70;16.50;;;;;;;3.45;82.97;101384.09;1699104;83;20998;-80
2021/01/07 03:03:28;;;;;;;28.90;15.95;;;;;;;3.52;82.94;101374.02;1702750;82;21025;-81
2021/01/07 03:05:57;;;;;;;27.10;15.65;;;;;;;3.60;82.72;101376.45;1709054;82;21053;-78
2021/01/07 03:08:25;;;;;;;27.93;14.93;;;;;;;3.69;82.64;101386.65;1709124;82;20965;-79
2021/01/07 03:10:54;;;;;;;23.18;14.00;;;;;;;3.76;82.45;101384.38;1734165;82;21390;-78
2021/01/07 03:13:22;;;;;;;28.73;12.98;;;;;;;3.80;82.31;101377.36;1709028;82;20965;-78
2021/01/07 03:15:49;;;;;;;20.10;12.00;;;;;;;3.84;82.57;101386.35;1709105;82;21462;-79
2021/01/07 03:18:17;;;;;;;23.60;12.75;;;;;;;3.94;82.56;101379.26;1709061;82;21077;-79
2021/01/07 03:20:45;;;;;;;17.37;10.28;;;;;;;4.03;82.29;101368.69;1709360;82;21553;-79
2021/01/07 03:23:13;;;;;;;17.70;8.53;;;;;;;4.06;82.03;101367.31;1709139;82;21127;-80
2021/01/07 03:25:40;;;;;;;18.27;9.75;;;;;;;4.08;81.95;101364.69;1709115;82;21048;-80
2021/01/07 03:28:09;;;;;;;17.37;9.73;;;;;;;4.08;81.95;101372.48;1709261;82;20973;-80
2021/01/07 03:30:37;;;;;;;20.00;11.80;;;;;;;4.07;82.15;101378.54;1734192;82;21482;-80
2021/01/07 03:33:05;;;;;;;19.80;11.50;;;;;;;4.07;82.16;101373.34;1709104;82;20997;-79
2021/01/07 03:35:33;;;;;;;23.15;13.48;;;;;;;4.08;82.47;101368.59;1709098;82;21182;-78
2021/01/07 03:38:01;;;;;;;27.32;14.45;;;;;;;4.10;82.45;101362.92;1709038;82;21111;-78
2021/01/07 03:40:29;;;;;;;29.10;16.67;;;;;;;4.12;82.43;101358.11;1709166;82;21057;-78
2021/01/07 03:42:57;;;;;;;29.02;15.30;;;;;;;4.11;82.56;101364.20;1708894;82;21644;-79
2021/01/07 03:45:24;;;;;;;28.70;14.93;;;;;;;4.17;82.70;101367.55;1709150;82;20998;-79
2021/01/07 03:47:52;;;;;;;21.97;13.08;;;;;;;4.24;82.56;101365.22;1708822;82;21284;-79
2021/01/07 03:50:20;;;;;;;26.70;14.80;;;;;;;4.28;82.64;101359.92;1708875;82;21037;-79
2021/01/07 03:52:48;;;;;;;26.23;13.48;;;;;;;4.36;82.80;101359.77;1709087;82;21020;-78
2021/01/07 03:55:16;;;;;;;27.58;15.32;;;;;;;4.44;82.70;101356.98;1708888;82;20977;-79
2021/01/07 03:57:44;;;;;;;27.45;17.20;;;;;;;4.46;82.70;101359.11;1709094;82;21517;-79
2021/01/07 04:00:17;;;;;;;25.25;15.35;;;;;;;4.51;82.83;101361.14;1709154;82;21779;-80
2021/01/07 04:02:45;;;;;;;32.95;16.35;;;;;;;4.59;82.95;101363.58;1708988;82;21021;-78
2021/01/07 04:05:14;;;;;;;33.92;16.02;;;;;;;4.68;82.67;101359.47;1695293;83;20971;-80
2021/01/07 04:07:42;;;;;;;30.05;15.65;;;;;;;4.71;82.47;101342.08;1656954;86;20980;-78
2021/01/07 04:10:10;;;;;;;30.60;16.42;;;;;;;4.74;82.47;101332.89;1676267;84;20994;-80
2021/01/07 04:12:38;;;;;;;35.58;18.07;;;;;;;4.77;82.55;101318.97;1676183;84;21132;-80
2021/01/07 04:15:07;;;;;;;36.75;19.48;;;;;;;4.78;82.63;101318.94;1676101;84;21103;-79
2021/01/07 04:17:34;;;;;;;35.65;21.45;;;;;;;4.80;82.58;101317.58;1676205;84;20990;-79
2021/01/07 04:20:05;;;;;;;39.10;20.77;;;;;;;4.85;82.60;101324.00;1676118;84;21039;-79
2021/01/07 04:22:32;;;;;;;33.38;18.55;;;;;;;4.89;82.56;101306.98;1676341;84;20994;-80
2021/01/07 04:25:00;;;;;;;32.33;18.67;;;;;;;4.98;82.46;101311.95;1653910;84;22908;-79
2021/01/07 04:27:29;;;;;;;37.53;19.85;;;;;;;5.05;82.34;101307.89;1676234;84;21049;-81
2021/01/07 04:29:57;;;;;;;36.35;20.00;;;;;;;5.08;82.42;101303.91;1676190;84;21063;-79
2021/01/07 04:32:25;;;;;;;40.75;20.95;;;;;;;5.15;82.50;101315.39;1694314;83;21002;-80
2021/01/07 04:34:52;;;;;;;41.10;22.15;;;;;;;5.25;82.29;101330.32;1694370;83;21439;-79
2021/01/07 04:37:20;;;;;;;39.60;20.68;;;;;;;5.32;81.91;101330.55;1656769;86;21184;-78
2021/01/07 04:39:48;;;;;;;36.98;19.42;;;;;;;5.38;81.66;101321.30;1676254;84;21057;-80
2021/01/07 04:42:16;;;;;;;40.78;21.82;;;;;;;5.40;81.31;101296.09;1676467;84;21093;-79
2021/01/07 04:44:45;;;;;;;41.50;22.15;;;;;;;5.38;81.35;101296.59;1676369;84;20978;-78
2021/01/07 04:47:13;;;;;;;35.05;20.45;;;;;;;5.38;81.40;101286.19;1676201;84;20982;-77
2021/01/07 04:49:42;;;;;;;39.63;20.90;;;;;;;5.37;81.39;101274.52;1677032;84;21002;-78
2021/01/07 04:52:11;;;;;;;37.73;20.77;;;;;;;5.31;81.54;101283.32;1675798;84;21700;-77
2021/01/07 04:54:39;;;;;;;38.88;21.55;;;;;;;5.29;81.46;101278.64;1676382;84;21002;-79
2021/01/07 04:57:06;;;;;;;36.80;20.05;;;;;;;5.25;81.51;101260.56;1676209;84;21097;-78
2021/01/07 04:59:35;;;;;;;34.73;19.30;;;;;;;5.25;81.58;101257.52;1694410;83;21065;-78
2021/01/07 05:02:03;;;;;;;32.10;17.52;;;;;;;5.27;81.75;101282.15;1694459;83;21403;-79
2021/01/07 05:04:31;;;;;;;34.80;19.67;;;;;;;5.26;81.76;101268.30;1660750;85;20988;-79
2021/01/07 05:07:00;;;;;;;31.97;19.15;;;;;;;5.26;81.80;101251.86;1663155;85;20996;-78
2021/01/07 05:09:32;;;;;;;37.75;20.35;;;;;;;5.27;82.00;101253.13;1662857;85;21051;-79
2021/01/07 05:12:51;;;;;;;33.35;17.75;;;;;;;5.38;81.93;101254.97;1777179;79;22813;-78
2021/01/07 05:15:19;;;;;;;26.17;13.80;;;;;;;5.40;81.79;101261.41;1749798;82;21089;-78
2021/01/07 05:17:47;;;;;;;23.62;13.90;;;;;;;5.44;81.69;101255.23;1720441;82;21527;-81
2021/01/07 05:20:16;;;;;;;21.07;14.20;;;;;;;5.46;81.71;101261.24;1718804;82;20955;-78
2021/01/07 05:22:44;;;;;;;20.43;13.22;;;;;;;5.46;81.86;101262.55;1718821;80;21035;-78
2021/01/07 05:25:14;;;;;;;26.37;15.28;;;;;;;5.48;81.93;101250.34;1720154;82;21026;-78
2021/01/07 05:27:44;;;;;;;25.30;13.40;;;;;;;5.50;81.89;101248.56;1718936;82;21464;-78
2021/01/07 05:30:13;;;;;;;21.15;13.03;;;;;;;5.50;81.86;101236.01;1720245;82;21164;-79
2021/01/07 05:32:42;;;;;;;20.92;13.55;;;;;;;5.51;81.79;101232.50;1720117;82;21078;-80
2021/01/07 05:35:19;;;;;;;24.52;13.43;;;;;;;5.51;81.78;101242.91;1720009;82;21030;-78
2021/01/07 05:37:47;;;;;;;29.50;15.60;;;;;;;5.48;81.84;101241.24;1720310;82;21524;-79
2021/01/07 05:40:16;;;;;;;29.82;16.40;;;;;;;5.46;81.94;101234.39;1720278;82;21567;-78
2021/01/07 05:42:45;;;;;;;32.93;16.87;;;;;;;5.39;82.10;101228.05;1720127;82;21905;-78
2021/01/07 05:45:17;;;;;;;32.63;15.55;;;;;;;5.35;82.11;101234.69;1718870;82;21046;-80
2021/01/07 05:47:50;;;;;;;32.08;16.85;;;;;;;5.34;82.28;101227.80;1718749;82;21015;-78
2021/01/07 05:50:22;;;;;;;25.40;13.62;;;;;;;5.33;82.45;101216.97;1719149;82;20955;-79
2021/01/07 05:52:50;;;;;;;28.27;15.72;;;;;;;5.33;82.63;101220.88;1720330;82;21097;-78
2021/01/07 05:55:19;;;;;;;33.73;17.17;;;;;;;5.32;82.77;101217.43;1720050;82;22686;-77
2021/01/07 05:57:47;;;;;;;30.10;18.23;;;;;;;5.31;82.81;101207.91;1720053;82;20979;-79
2021/01/07 06:00:17;;;;;;;30.45;17.95;;;;;;;5.33;82.83;101215.67;1720123;82;21010;-78
2021/01/07 06:02:45;;;;;;;32.70;17.07;;;;;;;5.33;82.74;101213.92;1718964;82;21002;-80
2021/01/07 06:05:15;;;;;;;34.15;19.85;;;;;;;5.32;82.83;101213.98;1720121;82;21582;-79
2021/01/07 06:07:43;;;;;;;33.85;18.25;;;;;;;5.30;82.93;101213.17;1718854;82;22129;-78
2021/01/07 06:10:12;;;;;;;34.35;16.73;;;;;;;5.29;83.12;101213.63;1720014;82;20975;-79
2021/01/07 06:12:40;;;;;;;29.65;16.95;;;;;;;5.28;83.31;101213.20;1728654;81;20962;-79
2021/01/07 06:15:10;;;;;;;35.13;18.82;;;;;;;5.29;83.43;101217.53;1730100;81;20987;-80
2021/01/07 06:17:38;;;;;;;30.02;17.75;;;;;;;5.30;83.49;101213.17;1730250;81;20923;-79
2021/01/07 06:20:20;;;;;;;28.00;15.48;;;;;;;5.34;83.42;101209.14;1730370;81;21388;-80
2021/01/07 06:22:51;;;;;;;25.80;13.58;;;;;;;5.37;83.42;101218.59;1729988;81;21515;-79
2021/01/07 06:25:22;;;;;;;26.20;14.80;;;;;;;5.39;83.47;101216.80;1729711;81;20958;-79
2021/01/07 06:27:51;;;;;;;23.02;14.90;;;;;;;5.39;83.43;101219.41;1728450;80;20919;-80
2021/01/07 06:30:24;;;;;;;29.30;16.95;;;;;;;5.39;83.55;101211.15;1728598;81;21503;-80
2021/01/07 06:33:06;;;;;;;30.30;16.93;;;;;;;5.40;83.64;101206.79;1728595;80;21182;-79
2021/01/07 06:35:43;;;;;;;29.57;16.37;;;;;;;5.41;83.62;101205.91;1728236;81;21010;-78
2021/01/07 06:38:25;;;;;;;28.40;15.93;;;;;;;5.45;83.56;101206.66;1729643;81;20939;-79
2021/01/07 06:40:57;;;;;;;29.42;16.85;;;;;;;5.48;83.58;101202.23;1729624;81;21016;-79
2021/01/07 06:43:25;;;;;;;29.30;18.05;;;;;;;5.48;83.62;101197.48;1729695;81;21025;-80
2021/01/07 06:45:55;;;;;;;37.40;17.92;;;;;;;5.50;83.66;101202.19;1729559;81;21255;-79
2021/01/07 06:48:32;;;;;;;36.28;19.60;;;;;;;5.51;83.68;101205.19;1728355;81;21038;-79
2021/01/07 06:51:01;;;;;;;34.45;21.10;;;;;;;5.54;83.69;101205.11;1728274;81;20967;-79
2021/01/07 06:53:36;;;;;;;30.12;17.17;;;;;;;5.56;83.58;101192.91;1728397;81;21396;-78
2021/01/07 06:56:22;;;;;;;;;;;;;;;5.60;83.42;101199.28;1732301;81;21006;-77
2021/01/07 06:58:49;;;;;;;26.23;15.27;;;;;;;5.64;83.27;101193.52;1730046;81;21361;-79
2021/01/07 07:01:18;;;;;;;25.00;15.70;;;;;;;5.65;83.32;101195.23;1728483;81;20939;-80
2021/01/07 07:03:48;;;;;;;27.07;15.30;;;;;;;5.68;83.16;101194.28;1728440;81;21026;-81
2021/01/07 07:06:18;;;;;;;24.90;15.35;;;;;;;5.69;83.10;101186.86;1728468;81;20984;-80
2021/01/07 07:08:47;;;;;;;24.10;14.68;;;;;;;5.71;83.03;101190.27;1729768;81;20979;-82
2021/01/07 07:11:33;;;;;;;23.35;13.70;;;;;;;5.74;82.86;101198.00;1728388;81;21192;-80
2021/01/07 07:14:07;;;;;;;17.98;11.15;;;;;;;5.77;82.67;101193.54;1708290;82;21106;-80
2021/01/07 07:16:36;;;;;;;17.87;11.63;;;;;;;5.78;82.51;101192.66;1699053;82;21409;-80
2021/01/07 07:19:07;;;;;;;16.35;11.03;;;;;;;5.78;82.47;101190.05;1722157;82;21010;-79
2021/01/07 07:21:36;;;;;;;17.62;12.35;;;;;;;5.80;82.36;101191.28;1722298;82;21014;-79
2021/01/07 07:24:12;;;;;;;22.85;12.40;;;;;;;5.80;82.35;101183.05;1722186;82;21432;-79
2021/01/07 07:26:42;;;;;;;16.25;11.80;;;;;;;5.84;82.15;101186.39;1749409;82;21065;-80
2021/01/07 07:29:16;;;;;;;18.67;11.35;;;;;;;5.85;81.91;101182.03;1722287;82;21070;-80
2021/01/07 07:31:48;;;;;;;18.00;11.05;;;;;;;5.87;81.66;101177.20;1653719;82;21023;-81
2021/01/07 07:34:16;;;;;;;15.58;10.80;;;;;;;5.89;81.45;101181.05;1722141;81;21053;-81
2021/01/07 07:36:44;;;;;;;16.23;12.43;;;;;;;5.88;81.32;101176.75;1722031;82;21445;-82
2021/01/07 07:39:13;;;;;;;15.83;11.63;;;;;;;5.87;81.21;101174.61;1722034;82;21054;-81
2021/01/07 07:41:44;;;;;;;16.25;11.20;;;;;;;5.88;81.12;101174.99;1722077;82;20959;-80
2021/01/07 07:44:15;;;;;;;17.90;10.98;;;;;;;5.90;80.92;101175.80;1722101;82;21042;-79
2021/01/07 07:46:44;;;;;;;15.23;9.60;;;;;;;5.94;80.75;101163.55;1722429;81;21064;-79
2021/01/07 07:49:12;;;;;;;16.42;10.75;;;;;;;5.97;80.38;101164.31;1722128;82;22226;-80
2021/01/07 07:51:40;;;;;;;14.73;10.55;;;;;;;5.99;80.36;101157.31;1721868;82;21405;-81
2021/01/07 07:54:11;;;;;;;16.00;10.68;;;;;;;6.01;80.28;101160.72;1722032;82;20955;-80
2021/01/07 07:56:39;;;;;;;17.27;12.28;;;;;;;6.04;80.10;101158.46;1722053;82;20951;-79
2021/01/07 07:59:10;;;;;;;13.48;10.05;;;;;;;6.06;79.89;101153.21;1722172;82;20954;-78
2021/01/07 08:01:49;;;;;;;15.78;10.35;;;;;;;6.10;79.69;101146.55;1720898;82;21167;-80
2021/01/07 08:04:26;;;;;;;14.23;9.75;;;;;;;6.15;79.47;101151.60;1721981;82;20986;-80
2021/01/07 08:06:54;;;;;;;14.33;8.83;;;;;;;6.18;79.36;101154.09;1722307;82;28648;-79
2021/01/07 08:09:27;;;;;;;14.83;9.63;;;;;;;6.21;79.20;101146.20;1749793;82;20946;-79
2021/01/07 08:11:54;;;;;;;17.57;10.75;;;;;;;6.23;78.84;101141.34;1724245;81;21083;-80
2021/01/07 08:14:26;;;;;;;13.05;10.05;;;;;;;6.23;78.80;101149.61;1729575;81;22129;-77
2021/01/07 08:16:58;;;;;;;17.02;11.33;;;;;;;6.25;78.56;101146.50;1728265;81;21002;-78
2021/01/07 08:19:32;;;;;;;14.15;9.88;;;;;;;6.27;78.54;101143.83;1728152;81;20947;-80
2021/01/07 08:22:01;;;;;;;17.10;10.10;;;;;;;6.29;78.40;101135.08;1728273;81;20966;-77
2021/01/07 08:24:30;;;;;;;16.35;10.43;;;;;;;6.32;78.24;101128.45;1757482;81;20970;-79
2021/01/07 08:27:19;;;;;;;14.58;11.35;;;;;;;6.35;78.15;101128.80;1728141;81;21174;-78
2021/01/07 08:29:53;;;;;;;15.80;10.68;;;;;;;6.36;78.00;101130.06;1694503;82;20966;-77
2021/01/07 08:32:22;;;;;;;15.48;9.70;;;;;;;6.40;77.95;101121.23;1694388;83;20938;-80
2021/01/07 08:34:52;;;;;;;12.95;9.33;;;;;;;6.44;77.85;101121.97;1666600;84;20982;-80
2021/01/07 08:37:21;;;;;;;13.78;9.58;;;;;;;6.47;77.73;101110.58;1661271;83;20941;-81
2021/01/07 08:40:05;;;;;;;12.78;8.95;;;;;;;6.48;77.79;101111.84;1739224;81;22514;-82
2021/01/07 08:43:51;;;;;;;13.53;8.68;;;;;;;6.58;77.67;101105.41;1789038;79;24601;-81
2021/01/07 08:46:44;;;;;;;16.82;10.53;;;;;;;6.55;77.56;101103.36;1777775;80;21011;-83
2021/01/07 08:49:35;;;;;;;;;;;;;;;;;;;;;
2021/01/07 08:53:14;;;;;;;;;;;;;;;;;;;;;
2021/01/07 08:59:49;;;;;;;11.97;9.23;;;;;;;6.68;77.57;101079.02;1815350;77;23531;-84
2021/01/07 09:02:49;;;;;;;14.63;9.35;;;;;;;6.66;77.52;101077.76;1714406;81;20961;-83
2021/01/07 09:06:31;;;;;;;13.50;9.35;;;;;;;6.71;77.38;101069.31;1805841;77;24006;-85
2021/01/07 09:10:33;;;;;;;;;;;;;;;;;;;;;
2021/01/07 09:21:33;;;;;;;12.90;9.58;;;;;;;6.80;77.57;101044.66;1812143;79;22404;-83
2021/01/07 09:28:16;;;;;;;18.50;10.82;;;;;;;6.84;77.63;101031.45;1718129;81;21086;-80
2021/01/07 09:30:59;;;;;;;17.60;10.80;;;;;;;6.94;77.70;101018.09;1852325;77;22746;-79
2021/01/07 09:33:27;;;;;;;18.77;10.88;;;;;;;6.91;77.77;101025.55;1757542;78;21006;-77
2021/01/07 09:35:55;;;;;;;19.50;12.40;;;;;;;6.95;77.75;101032.36;1715764;82;21006;-79
2021/01/07 09:38:24;;;;;;;19.10;11.48;;;;;;;6.97;77.73;101026.63;1799520;78;21053;-80
2021/01/07 09:40:52;;;;;;;18.85;12.35;;;;;;;6.99;77.75;101024.81;1719548;82;20935;-79
2021/01/07 09:43:20;;;;;;;15.93;11.80;;;;;;;7.01;77.71;101030.83;1799762;78;20954;-80
2021/01/07 09:45:49;;;;;;;15.58;10.00;;;;;;;7.04;77.74;101032.45;1719669;82;20971;-79
2021/01/07 09:48:17;;;;;;;20.12;11.85;;;;;;;7.04;77.91;101003.31;1799666;78;21869;-78
2021/01/07 09:50:45;;;;;;;22.77;14.07;;;;;;;7.03;77.87;100985.14;1719207;81;21026;-78
2021/01/07 09:53:13;;;;;;;19.67;13.55;;;;;;;6.99;78.04;100984.86;1799684;78;20966;-79
2021/01/07 09:55:41;;;;;;;18.75;11.10;;;;;;;6.95;78.28;100984.58;1719440;82;20974;-80
2021/01/07 09:58:09;;;;;;;22.58;13.68;;;;;;;6.90;78.40;100973.03;1799648;78;20966;-83
2021/01/07 10:00:38;;;;;;;21.73;13.80;;;;;;;6.90;78.47;100949.56;1782697;78;21294;-81
2021/01/07 10:03:06;;;;;;;19.67;13.05;;;;;;;6.90;78.55;100952.64;1786785;78;21458;-82
2021/01/07 10:05:34;;;;;;;17.85;12.78;;;;;;;6.90;78.69;100935.23;1715886;82;21527;-84
2021/01/07 10:08:02;;;;;;;18.70;14.20;;;;;;;6.90;78.85;100919.59;1799597;78;20965;-83
2021/01/07 10:10:31;;;;;;;21.37;13.85;;;;;;;6.92;79.06;100939.09;1715755;82;20919;-84
2021/01/07 10:12:59;;;;;;;21.37;13.43;;;;;;;6.96;79.21;100944.55;1788139;78;21988;-81
2021/01/07 10:15:27;;;;;;;16.23;12.10;;;;;;;6.97;79.18;100934.53;1719589;82;21045;-82
2021/01/07 10:17:55;;;;;;;17.45;12.03;;;;;;;7.00;79.13;100937.88;1820100;78;21427;-82
2021/01/07 10:20:23;;;;;;;16.48;11.45;;;;;;;7.02;79.11;100937.33;1786900;78;21522;-80
2021/01/07 10:22:51;;;;;;;14.73;11.30;;;;;;;7.03;79.19;100940.81;1715661;82;20974;-81
2021/01/07 10:25:19;;;;;;;17.50;11.28;;;;;;;7.04;79.25;100935.98;1731314;78;21383;-82
2021/01/07 10:27:47;;;;;;;15.43;11.43;;;;;;;7.01;79.35;100933.05;1719508;82;21038;-83
2021/01/07 10:30:16;;;;;;;14.10;11.63;;;;;;;6.98;79.47;100927.09;1799574;78;20946;-79
2021/01/07 10:32:44;;;;;;;14.20;10.32;;;;;;;6.93;79.57;100922.06;1715543;82;21030;-84
2021/01/07 10:35:13;;;;;;;14.58;10.18;;;;;;;6.89;79.86;100909.21;1799724;78;21092;-85
2021/01/07 10:37:41;;;;;;;14.23;10.65;;;;;;;6.85;80.00;100895.47;1786177;78;20997;-85
2021/01/07 10:40:10;;;;;;;13.13;10.63;;;;;;;6.82;80.17;100895.58;1719235;82;20987;-85
2021/01/07 10:42:38;;;;;;;11.50;9.35;;;;;;;6.78;80.36;100879.23;1799366;78;21009;-83
2021/01/07 10:45:10;;;;;;;16.65;10.80;;;;;;;6.79;80.51;100881.37;1718955;82;21056;-82
2021/01/07 10:47:42;;;;;;;12.28;9.65;;;;;;;6.80;80.60;100870.02;1789557;78;21293;-81
2021/01/07 10:50:13;;;;;;;13.05;9.23;;;;;;;6.81;80.66;100869.12;1685851;82;21273;-82
2021/01/07 10:53:01;;;;;;;11.85;9.38;;;;;;;6.80;80.85;100853.95;1786242;78;20922;-82
2021/01/07 10:55:30;;;;;;;14.35;9.68;;;;;;;6.80;81.13;100851.78;1715108;82;20970;-81
2021/01/07 10:58:20;;;;;;;14.00;10.13;;;;;;;6.81;81.26;100837.85;1786299;78;20954;-82
2021/01/07 11:01:04;;;;;;;17.55;11.12;;;;;;;6.81;81.57;100839.16;1719008;82;20991;-82
2021/01/07 11:03:54;;;;;;;14.03;9.63;;;;;;;6.81;81.66;100836.55;1787735;78;22242;-77
2021/01/07 11:06:26;;;;;;;11.40;8.95;;;;;;;6.84;81.80;100836.41;1718798;82;21538;-74
2021/01/07 11:08:59;;;;;;;12.63;8.65;;;;;;;6.85;81.90;100829.84;1786334;78;20958;-72
2021/01/07 11:11:36;;;;;;;12.23;7.78;;;;;;;6.87;82.02;100825.88;1718773;82;20949;-70
2021/01/07 11:14:11;;;;;;;18.60;12.80;;;;;;;6.90;82.17;100811.40;1769777;78;21006;-74
2021/01/07 11:16:52;;;;;;;16.62;12.63;;;;;;;6.91;82.25;100810.47;1699828;82;21262;-77
2021/01/07 11:19:26;;;;;;;13.78;9.70;;;;;;;6.92;82.47;100809.58;1798926;78;21091;-77
2021/01/07 11:22:15;;;;;;;10.55;7.75;;;;;;;6.93;82.56;100801.30;1749570;80;21006;-75
2021/01/07 11:24:43;;;;;;;15.15;9.28;;;;;;;6.92;82.80;100795.24;1785897;78;21061;-75
2021/01/07 11:27:13;;;;;;;10.75;7.90;;;;;;;6.92;82.92;100790.03;1718715;82;20969;-77
2021/01/07 11:29:53;;;;;;;11.33;8.78;;;;;;;6.93;83.08;100768.24;1780434;80;22524;-86
2021/01/07 11:32:23;;;;;;;11.45;9.68;;;;;;;6.95;83.21;100761.20;1773474;80;21053;-82
2021/01/07 11:35:02;;;;;;;12.53;9.13;;;;;;;6.97;83.32;100743.74;1774672;80;20962;-85
2021/01/07 11:38:03;;;;;;;13.70;8.50;;;;;;;7.00;83.41;100722.77;1705354;83;21494;-82
2021/01/07 11:40:55;;;;;;;7.78;6.87;;;;;;;7.04;83.48;100724.77;1704634;83;20978;-81
2021/01/07 11:44:12;;;;;;;9.48;6.90;;;;;;;7.10;83.61;100725.81;1704680;81;21978;-84
2021/01/07 11:46:47;;;;;;;8.83;5.90;;;;;;;7.14;83.70;100733.89;1704598;83;20985;-86
2021/01/07 11:49:34;;;;;;;12.10;7.55;;;;;;;7.26;83.79;100722.06;1820293;77;22729;-88
2021/01/07 11:52:03;;;;;;;9.58;8.30;;;;;;;7.23;83.82;100724.36;1728970;81;20962;-79
2021/01/07 11:54:37;;;;;;;10.35;8.25;;;;;;;7.29;83.95;100733.66;1738039;81;21905;-76
2021/01/07 11:57:07;;;;;;;10.35;8.20;;;;;;;7.34;83.92;100726.95;1728619;81;21018;-75
2021/01/07 11:59:38;;;;;;;8.38;7.30;;;;;;;7.39;83.87;100732.80;1763333;81;20959;-74
2021/01/07 12:02:09;;;;;;;8.83;7.25;;;;;;;7.45;83.85;100735.98;1728995;81;21033;-74
2021/01/07 12:04:38;;;;;;;13.05;8.95;;;;;;;7.55;83.67;100728.57;1763289;81;21021;-78